sensor_id;sensor_type;location;lat;lon;timestamp;P1;durP1;ratioP1;P2;durP2;ratioP2
47715;SDS011;33476;50.984;3.538;2024-02-14T00:01:16;3.63;;;1.92;;
47715;SDS011;33476;50.984;3.538;2024-02-14T00:03:41;2.40;;;1.25;;
47715;SDS011;33476;50.984;3.538;2024-02-14T00:06:07;3.50;;;1.83;;
47715;SDS011;33476;50.984;3.538;2024-02-14T00:08:32;1.75;;;1.30;;
47715;SDS011;33476;50.984;3.538;2024-02-14T00:10:57;6.93;;;1.85;;
47715;SDS011;33476;50.984;3.538;2024-02-14T00:13:23;3.53;;;1.33;;
47715;SDS011;33476;50.984;3.538;2024-02-14T00:15:48;3.47;;;1.80;;
47715;SDS011;33476;50.984;3.538;2024-02-14T00:18:14;3.63;;;2.13;;
47715;SDS011;33476;50.984;3.538;2024-02-14T00:20:40;6.10;;;1.85;;
47715;SDS011;33476;50.984;3.538;2024-02-14T00:23:05;2.05;;;1.48;;
47715;SDS011;33476;50.984;3.538;2024-02-14T00:25:31;2.88;;;1.75;;
47715;SDS011;33476;50.984;3.538;2024-02-14T00:27:56;5.63;;;1.90;;
47715;SDS011;33476;50.984;3.538;2024-02-14T00:30:25;2.55;;;1.58;;
47715;SDS011;33476;50.984;3.538;2024-02-14T00:32:51;4.65;;;1.55;;
47715;SDS011;33476;50.984;3.538;2024-02-14T00:35:16;6.40;;;1.83;;
47715;SDS011;33476;50.984;3.538;2024-02-14T00:37:42;2.80;;;1.50;;
47715;SDS011;33476;50.984;3.538;2024-02-14T00:40:08;3.65;;;1.30;;
47715;SDS011;33476;50.984;3.538;2024-02-14T00:42:34;5.80;;;1.55;;
47715;SDS011;33476;50.984;3.538;2024-02-14T00:44:59;3.25;;;1.33;;
47715;SDS011;33476;50.984;3.538;2024-02-14T00:47:24;3.72;;;1.73;;
47715;SDS011;33476;50.984;3.538;2024-02-14T00:49:50;2.35;;;1.38;;
47715;SDS011;33476;50.984;3.538;2024-02-14T00:52:15;3.08;;;1.52;;
47715;SDS011;33476;50.984;3.538;2024-02-14T00:54:41;3.60;;;1.73;;
47715;SDS011;33476;50.984;3.538;2024-02-14T00:57:07;3.55;;;1.30;;
47715;SDS011;33476;50.984;3.538;2024-02-14T00:59:32;1.85;;;1.27;;
47715;SDS011;33476;50.984;3.538;2024-02-14T01:01:58;3.28;;;1.50;;
47715;SDS011;33476;50.984;3.538;2024-02-14T01:04:24;2.72;;;1.17;;
47715;SDS011;33476;50.984;3.538;2024-02-14T01:06:49;4.82;;;1.48;;
47715;SDS011;33476;50.984;3.538;2024-02-14T01:09:16;3.80;;;1.38;;
47715;SDS011;33476;50.984;3.538;2024-02-14T01:11:43;3.28;;;1.50;;
47715;SDS011;33476;50.984;3.538;2024-02-14T01:14:08;3.65;;;1.70;;
47715;SDS011;33476;50.984;3.538;2024-02-14T01:16:34;3.00;;;1.60;;
47715;SDS011;33476;50.984;3.538;2024-02-14T01:19:07;3.08;;;1.25;;
47715;SDS011;33476;50.984;3.538;2024-02-14T01:21:32;2.65;;;1.27;;
47715;SDS011;33476;50.984;3.538;2024-02-14T01:23:57;3.47;;;1.75;;
47715;SDS011;33476;50.984;3.538;2024-02-14T01:26:23;4.45;;;1.48;;
47715;SDS011;33476;50.984;3.538;2024-02-14T01:28:48;3.65;;;1.60;;
47715;SDS011;33476;50.984;3.538;2024-02-14T01:31:13;3.17;;;1.50;;
47715;SDS011;33476;50.984;3.538;2024-02-14T01:33:39;3.08;;;1.35;;
47715;SDS011;33476;50.984;3.538;2024-02-14T01:36:05;2.42;;;1.42;;
47715;SDS011;33476;50.984;3.538;2024-02-14T01:38:30;3.00;;;1.35;;
47715;SDS011;33476;50.984;3.538;2024-02-14T01:41:00;3.92;;;1.45;;
47715;SDS011;33476;50.984;3.538;2024-02-14T01:43:27;4.53;;;1.73;;
47715;SDS011;33476;50.984;3.538;2024-02-14T01:45:53;2.97;;;1.77;;
47715;SDS011;33476;50.984;3.538;2024-02-14T01:48:18;4.88;;;1.27;;
47715;SDS011;33476;50.984;3.538;2024-02-14T01:50:44;4.75;;;1.90;;
47715;SDS011;33476;50.984;3.538;2024-02-14T01:53:10;3.08;;;1.30;;
47715;SDS011;33476;50.984;3.538;2024-02-14T01:55:37;2.75;;;1.52;;
47715;SDS011;33476;50.984;3.538;2024-02-14T01:58:02;2.60;;;1.10;;
47715;SDS011;33476;50.984;3.538;2024-02-14T02:00:29;2.47;;;1.30;;
47715;SDS011;33476;50.984;3.538;2024-02-14T02:02:57;3.25;;;1.40;;
47715;SDS011;33476;50.984;3.538;2024-02-14T02:05:23;3.10;;;1.40;;
47715;SDS011;33476;50.984;3.538;2024-02-14T02:07:48;2.97;;;1.38;;
47715;SDS011;33476;50.984;3.538;2024-02-14T02:10:14;3.35;;;1.30;;
47715;SDS011;33476;50.984;3.538;2024-02-14T02:12:40;5.03;;;1.70;;
47715;SDS011;33476;50.984;3.538;2024-02-14T02:15:06;4.97;;;1.83;;
47715;SDS011;33476;50.984;3.538;2024-02-14T02:17:37;6.78;;;1.90;;
47715;SDS011;33476;50.984;3.538;2024-02-14T02:20:04;3.10;;;1.50;;
47715;SDS011;33476;50.984;3.538;2024-02-14T02:22:32;3.30;;;1.30;;
47715;SDS011;33476;50.984;3.538;2024-02-14T02:25:00;3.15;;;2.17;;
47715;SDS011;33476;50.984;3.538;2024-02-14T02:27:25;3.40;;;1.40;;
47715;SDS011;33476;50.984;3.538;2024-02-14T02:29:51;2.95;;;1.13;;
47715;SDS011;33476;50.984;3.538;2024-02-14T02:32:16;6.20;;;1.45;;
47715;SDS011;33476;50.984;3.538;2024-02-14T02:34:43;2.75;;;1.30;;
47715;SDS011;33476;50.984;3.538;2024-02-14T02:37:10;4.78;;;1.25;;
47715;SDS011;33476;50.984;3.538;2024-02-14T02:39:36;2.72;;;1.10;;
47715;SDS011;33476;50.984;3.538;2024-02-14T02:42:02;2.33;;;1.10;;
47715;SDS011;33476;50.984;3.538;2024-02-14T02:44:28;3.83;;;1.33;;
47715;SDS011;33476;50.984;3.538;2024-02-14T02:46:54;2.42;;;1.52;;
47715;SDS011;33476;50.984;3.538;2024-02-14T02:49:20;2.92;;;1.30;;
47715;SDS011;33476;50.984;3.538;2024-02-14T02:51:46;5.95;;;1.45;;
47715;SDS011;33476;50.984;3.538;2024-02-14T02:54:12;3.20;;;1.30;;
47715;SDS011;33476;50.984;3.538;2024-02-14T02:56:38;1.92;;;1.30;;
47715;SDS011;33476;50.984;3.538;2024-02-14T02:59:05;5.50;;;1.63;;
47715;SDS011;33476;50.984;3.538;2024-02-14T03:01:37;4.78;;;1.58;;
47715;SDS011;33476;50.984;3.538;2024-02-14T03:04:02;5.35;;;1.95;;
47715;SDS011;33476;50.984;3.538;2024-02-14T03:06:28;5.38;;;1.40;;
47715;SDS011;33476;50.984;3.538;2024-02-14T03:08:53;3.10;;;1.52;;
47715;SDS011;33476;50.984;3.538;2024-02-14T03:11:20;3.55;;;1.52;;
47715;SDS011;33476;50.984;3.538;2024-02-14T03:13:46;3.53;;;1.70;;
47715;SDS011;33476;50.984;3.538;2024-02-14T03:16:14;2.55;;;1.42;;
47715;SDS011;33476;50.984;3.538;2024-02-14T03:18:40;3.40;;;1.45;;
47715;SDS011;33476;50.984;3.538;2024-02-14T03:21:05;4.68;;;1.40;;
47715;SDS011;33476;50.984;3.538;2024-02-14T03:23:31;3.40;;;1.50;;
47715;SDS011;33476;50.984;3.538;2024-02-14T03:25:56;4.97;;;1.55;;
47715;SDS011;33476;50.984;3.538;2024-02-14T03:28:22;2.53;;;1.48;;
47715;SDS011;33476;50.984;3.538;2024-02-14T03:30:47;1.65;;;1.08;;
47715;SDS011;33476;50.984;3.538;2024-02-14T03:33:12;6.15;;;1.60;;
47715;SDS011;33476;50.984;3.538;2024-02-14T03:35:38;5.13;;;1.23;;
47715;SDS011;33476;50.984;3.538;2024-02-14T03:38:03;4.45;;;2.22;;
47715;SDS011;33476;50.984;3.538;2024-02-14T03:40:29;2.75;;;1.60;;
47715;SDS011;33476;50.984;3.538;2024-02-14T03:42:55;3.67;;;1.35;;
47715;SDS011;33476;50.984;3.538;2024-02-14T03:45:21;5.35;;;1.70;;
47715;SDS011;33476;50.984;3.538;2024-02-14T03:47:47;3.92;;;1.75;;
47715;SDS011;33476;50.984;3.538;2024-02-14T03:50:12;5.18;;;1.70;;
47715;SDS011;33476;50.984;3.538;2024-02-14T03:52:38;2.67;;;1.27;;
47715;SDS011;33476;50.984;3.538;2024-02-14T03:55:04;4.63;;;1.95;;
47715;SDS011;33476;50.984;3.538;2024-02-14T03:57:30;4.88;;;1.40;;
47715;SDS011;33476;50.984;3.538;2024-02-14T03:59:59;3.13;;;1.80;;
47715;SDS011;33476;50.984;3.538;2024-02-14T04:02:28;5.40;;;1.65;;
47715;SDS011;33476;50.984;3.538;2024-02-14T04:04:53;4.47;;;1.60;;
47715;SDS011;33476;50.984;3.538;2024-02-14T04:07:19;5.10;;;1.50;;
47715;SDS011;33476;50.984;3.538;2024-02-14T04:09:44;2.80;;;1.85;;
47715;SDS011;33476;50.984;3.538;2024-02-14T04:12:09;4.57;;;2.00;;
47715;SDS011;33476;50.984;3.538;2024-02-14T04:14:35;2.80;;;1.70;;
47715;SDS011;33476;50.984;3.538;2024-02-14T04:17:02;4.78;;;2.03;;
47715;SDS011;33476;50.984;3.538;2024-02-14T04:19:28;4.03;;;1.98;;
47715;SDS011;33476;50.984;3.538;2024-02-14T04:21:54;3.47;;;1.85;;
47715;SDS011;33476;50.984;3.538;2024-02-14T04:24:19;3.97;;;1.80;;
47715;SDS011;33476;50.984;3.538;2024-02-14T04:26:45;5.97;;;2.20;;
47715;SDS011;33476;50.984;3.538;2024-02-14T04:29:13;5.45;;;1.98;;
47715;SDS011;33476;50.984;3.538;2024-02-14T04:31:38;1.98;;;1.33;;
47715;SDS011;33476;50.984;3.538;2024-02-14T04:34:03;5.10;;;1.60;;
47715;SDS011;33476;50.984;3.538;2024-02-14T04:36:30;4.75;;;1.85;;
47715;SDS011;33476;50.984;3.538;2024-02-14T04:38:57;3.55;;;1.45;;
47715;SDS011;33476;50.984;3.538;2024-02-14T04:41:22;4.43;;;1.67;;
47715;SDS011;33476;50.984;3.538;2024-02-14T04:43:48;6.05;;;2.10;;
47715;SDS011;33476;50.984;3.538;2024-02-14T04:46:13;4.57;;;1.85;;
47715;SDS011;33476;50.984;3.538;2024-02-14T04:48:39;4.18;;;1.95;;
47715;SDS011;33476;50.984;3.538;2024-02-14T04:51:04;4.80;;;2.33;;
47715;SDS011;33476;50.984;3.538;2024-02-14T04:53:30;3.40;;;1.80;;
47715;SDS011;33476;50.984;3.538;2024-02-14T04:55:56;6.05;;;1.92;;
47715;SDS011;33476;50.984;3.538;2024-02-14T04:58:22;8.90;;;1.67;;
47715;SDS011;33476;50.984;3.538;2024-02-14T05:00:47;3.63;;;1.60;;
47715;SDS011;33476;50.984;3.538;2024-02-14T05:03:13;4.68;;;1.50;;
47715;SDS011;33476;50.984;3.538;2024-02-14T05:05:38;7.82;;;1.70;;
47715;SDS011;33476;50.984;3.538;2024-02-14T05:08:03;2.83;;;1.48;;
47715;SDS011;33476;50.984;3.538;2024-02-14T05:10:29;4.63;;;1.55;;
47715;SDS011;33476;50.984;3.538;2024-02-14T05:12:56;4.90;;;1.55;;
47715;SDS011;33476;50.984;3.538;2024-02-14T05:15:21;2.70;;;1.50;;
47715;SDS011;33476;50.984;3.538;2024-02-14T05:17:46;7.22;;;1.80;;
47715;SDS011;33476;50.984;3.538;2024-02-14T05:20:12;4.90;;;1.52;;
47715;SDS011;33476;50.984;3.538;2024-02-14T05:22:37;4.20;;;1.50;;
47715;SDS011;33476;50.984;3.538;2024-02-14T05:25:03;3.00;;;1.88;;
47715;SDS011;33476;50.984;3.538;2024-02-14T05:27:30;4.50;;;1.83;;
47715;SDS011;33476;50.984;3.538;2024-02-14T05:29:55;6.93;;;1.80;;
47715;SDS011;33476;50.984;3.538;2024-02-14T05:32:22;2.75;;;1.85;;
47715;SDS011;33476;50.984;3.538;2024-02-14T05:34:47;3.60;;;1.73;;
47715;SDS011;33476;50.984;3.538;2024-02-14T05:37:12;3.30;;;1.67;;
47715;SDS011;33476;50.984;3.538;2024-02-14T05:39:39;6.47;;;1.70;;
47715;SDS011;33476;50.984;3.538;2024-02-14T05:42:04;2.03;;;1.55;;
47715;SDS011;33476;50.984;3.538;2024-02-14T05:44:30;6.07;;;1.40;;
47715;SDS011;33476;50.984;3.538;2024-02-14T05:46:56;3.72;;;1.88;;
47715;SDS011;33476;50.984;3.538;2024-02-14T05:49:21;4.75;;;1.52;;
47715;SDS011;33476;50.984;3.538;2024-02-14T05:51:47;6.65;;;1.50;;
47715;SDS011;33476;50.984;3.538;2024-02-14T05:54:12;10.43;;;2.17;;
47715;SDS011;33476;50.984;3.538;2024-02-14T05:56:38;5.22;;;1.65;;
47715;SDS011;33476;50.984;3.538;2024-02-14T05:59:03;6.30;;;1.63;;
47715;SDS011;33476;50.984;3.538;2024-02-14T06:01:29;7.40;;;2.40;;
47715;SDS011;33476;50.984;3.538;2024-02-14T06:03:54;5.65;;;1.92;;
47715;SDS011;33476;50.984;3.538;2024-02-14T06:06:20;6.88;;;1.70;;
47715;SDS011;33476;50.984;3.538;2024-02-14T06:08:45;8.07;;;2.05;;
47715;SDS011;33476;50.984;3.538;2024-02-14T06:11:11;5.40;;;1.70;;
47715;SDS011;33476;50.984;3.538;2024-02-14T06:13:39;5.38;;;1.92;;
47715;SDS011;33476;50.984;3.538;2024-02-14T06:16:04;4.38;;;1.55;;
47715;SDS011;33476;50.984;3.538;2024-02-14T06:18:30;8.40;;;1.98;;
47715;SDS011;33476;50.984;3.538;2024-02-14T06:20:56;4.93;;;1.90;;
47715;SDS011;33476;50.984;3.538;2024-02-14T06:23:21;5.22;;;1.88;;
47715;SDS011;33476;50.984;3.538;2024-02-14T06:25:46;2.75;;;1.60;;
47715;SDS011;33476;50.984;3.538;2024-02-14T06:28:12;5.97;;;1.83;;
47715;SDS011;33476;50.984;3.538;2024-02-14T06:30:37;3.80;;;1.30;;
47715;SDS011;33476;50.984;3.538;2024-02-14T06:33:02;7.32;;;1.73;;
47715;SDS011;33476;50.984;3.538;2024-02-14T06:35:28;4.03;;;1.83;;
47715;SDS011;33476;50.984;3.538;2024-02-14T06:37:54;7.68;;;1.98;;
47715;SDS011;33476;50.984;3.538;2024-02-14T06:40:19;6.05;;;1.83;;
47715;SDS011;33476;50.984;3.538;2024-02-14T06:42:45;9.55;;;2.17;;
47715;SDS011;33476;50.984;3.538;2024-02-14T06:45:11;5.00;;;1.92;;
47715;SDS011;33476;50.984;3.538;2024-02-14T06:47:36;7.80;;;2.00;;
47715;SDS011;33476;50.984;3.538;2024-02-14T06:50:01;6.28;;;1.77;;
47715;SDS011;33476;50.984;3.538;2024-02-14T06:52:27;7.97;;;2.10;;
47715;SDS011;33476;50.984;3.538;2024-02-14T06:54:52;7.65;;;1.92;;
47715;SDS011;33476;50.984;3.538;2024-02-14T06:57:17;6.45;;;1.65;;
47715;SDS011;33476;50.984;3.538;2024-02-14T06:59:43;6.90;;;2.03;;
47715;SDS011;33476;50.984;3.538;2024-02-14T07:02:08;3.53;;;1.70;;
47715;SDS011;33476;50.984;3.538;2024-02-14T07:04:34;5.05;;;1.70;;
47715;SDS011;33476;50.984;3.538;2024-02-14T07:06:59;5.68;;;1.95;;
47715;SDS011;33476;50.984;3.538;2024-02-14T07:09:25;7.88;;;1.95;;
47715;SDS011;33476;50.984;3.538;2024-02-14T07:11:51;7.40;;;1.90;;
47715;SDS011;33476;50.984;3.538;2024-02-14T07:14:22;4.30;;;1.98;;
47715;SDS011;33476;50.984;3.538;2024-02-14T07:16:48;5.18;;;1.92;;
47715;SDS011;33476;50.984;3.538;2024-02-14T07:19:13;6.68;;;1.48;;
47715;SDS011;33476;50.984;3.538;2024-02-14T07:21:38;3.78;;;1.88;;
47715;SDS011;33476;50.984;3.538;2024-02-14T07:24:04;4.57;;;2.10;;
47715;SDS011;33476;50.984;3.538;2024-02-14T07:26:30;8.80;;;2.30;;
47715;SDS011;33476;50.984;3.538;2024-02-14T07:28:56;5.78;;;1.70;;
47715;SDS011;33476;50.984;3.538;2024-02-14T07:31:21;5.07;;;1.95;;
47715;SDS011;33476;50.984;3.538;2024-02-14T07:33:47;8.77;;;2.25;;
47715;SDS011;33476;50.984;3.538;2024-02-14T07:36:14;4.53;;;1.60;;
47715;SDS011;33476;50.984;3.538;2024-02-14T07:38:39;3.08;;;1.63;;
47715;SDS011;33476;50.984;3.538;2024-02-14T07:41:07;4.82;;;1.60;;
47715;SDS011;33476;50.984;3.538;2024-02-14T07:43:32;8.07;;;1.98;;
47715;SDS011;33476;50.984;3.538;2024-02-14T07:45:58;5.15;;;1.83;;
47715;SDS011;33476;50.984;3.538;2024-02-14T07:48:23;5.40;;;2.20;;
47715;SDS011;33476;50.984;3.538;2024-02-14T07:50:48;6.47;;;2.05;;
47715;SDS011;33476;50.984;3.538;2024-02-14T07:53:14;4.22;;;2.72;;
47715;SDS011;33476;50.984;3.538;2024-02-14T07:55:39;5.68;;;1.83;;
47715;SDS011;33476;50.984;3.538;2024-02-14T07:58:05;7.25;;;2.55;;
47715;SDS011;33476;50.984;3.538;2024-02-14T08:00:30;7.28;;;2.35;;
47715;SDS011;33476;50.984;3.538;2024-02-14T08:02:56;7.72;;;2.30;;
47715;SDS011;33476;50.984;3.538;2024-02-14T08:05:21;7.18;;;2.33;;
47715;SDS011;33476;50.984;3.538;2024-02-14T08:07:47;10.15;;;1.90;;
47715;SDS011;33476;50.984;3.538;2024-02-14T08:10:12;6.03;;;2.10;;
47715;SDS011;33476;50.984;3.538;2024-02-14T08:12:38;9.73;;;2.47;;
47715;SDS011;33476;50.984;3.538;2024-02-14T08:15:03;4.28;;;2.38;;
47715;SDS011;33476;50.984;3.538;2024-02-14T08:17:31;6.55;;;2.28;;
47715;SDS011;33476;50.984;3.538;2024-02-14T08:19:56;8.80;;;2.10;;
47715;SDS011;33476;50.984;3.538;2024-02-14T08:22:22;7.68;;;2.10;;
47715;SDS011;33476;50.984;3.538;2024-02-14T08:24:47;6.70;;;2.50;;
47715;SDS011;33476;50.984;3.538;2024-02-14T08:27:12;7.10;;;1.98;;
47715;SDS011;33476;50.984;3.538;2024-02-14T08:29:38;9.38;;;2.33;;
47715;SDS011;33476;50.984;3.538;2024-02-14T08:32:03;7.20;;;2.08;;
47715;SDS011;33476;50.984;3.538;2024-02-14T08:34:30;7.15;;;2.30;;
47715;SDS011;33476;50.984;3.538;2024-02-14T08:36:55;6.63;;;2.30;;
47715;SDS011;33476;50.984;3.538;2024-02-14T08:39:21;6.68;;;2.25;;
47715;SDS011;33476;50.984;3.538;2024-02-14T08:41:46;8.45;;;2.33;;
47715;SDS011;33476;50.984;3.538;2024-02-14T08:44:12;4.00;;;1.67;;
47715;SDS011;33476;50.984;3.538;2024-02-14T08:46:40;5.28;;;2.42;;
47715;SDS011;33476;50.984;3.538;2024-02-14T08:49:07;7.68;;;2.03;;
47715;SDS011;33476;50.984;3.538;2024-02-14T08:51:36;5.30;;;2.30;;
47715;SDS011;33476;50.984;3.538;2024-02-14T08:54:02;6.63;;;1.88;;
47715;SDS011;33476;50.984;3.538;2024-02-14T08:56:34;4.07;;;2.80;;
47715;SDS011;33476;50.984;3.538;2024-02-14T08:59:02;4.28;;;2.05;;
47715;SDS011;33476;50.984;3.538;2024-02-14T09:01:29;5.90;;;2.03;;
47715;SDS011;33476;50.984;3.538;2024-02-14T09:03:55;3.42;;;2.13;;
47715;SDS011;33476;50.984;3.538;2024-02-14T09:06:21;7.90;;;2.78;;
47715;SDS011;33476;50.984;3.538;2024-02-14T09:08:46;4.13;;;1.73;;
47715;SDS011;33476;50.984;3.538;2024-02-14T09:11:12;4.80;;;2.25;;
47715;SDS011;33476;50.984;3.538;2024-02-14T09:13:38;6.43;;;2.38;;
47715;SDS011;33476;50.984;3.538;2024-02-14T09:16:10;3.40;;;1.60;;
47715;SDS011;33476;50.984;3.538;2024-02-14T09:18:36;4.55;;;1.70;;
47715;SDS011;33476;50.984;3.538;2024-02-14T09:21:02;4.25;;;1.60;;
47715;SDS011;33476;50.984;3.538;2024-02-14T09:23:30;4.30;;;1.98;;
47715;SDS011;33476;50.984;3.538;2024-02-14T09:25:56;2.50;;;2.08;;
47715;SDS011;33476;50.984;3.538;2024-02-14T09:28:22;4.70;;;2.05;;
47715;SDS011;33476;50.984;3.538;2024-02-14T09:30:48;5.45;;;2.30;;
47715;SDS011;33476;50.984;3.538;2024-02-14T09:33:13;5.50;;;2.40;;
47715;SDS011;33476;50.984;3.538;2024-02-14T09:35:39;6.15;;;2.20;;
47715;SDS011;33476;50.984;3.538;2024-02-14T09:38:09;2.47;;;2.03;;
47715;SDS011;33476;50.984;3.538;2024-02-14T09:40:35;4.80;;;1.88;;
47715;SDS011;33476;50.984;3.538;2024-02-14T09:43:01;4.05;;;2.10;;
47715;SDS011;33476;50.984;3.538;2024-02-14T09:45:30;5.88;;;2.00;;
47715;SDS011;33476;50.984;3.538;2024-02-14T09:47:58;3.88;;;1.83;;
47715;SDS011;33476;50.984;3.538;2024-02-14T09:50:23;4.47;;;1.60;;
47715;SDS011;33476;50.984;3.538;2024-02-14T09:52:51;4.97;;;1.88;;
47715;SDS011;33476;50.984;3.538;2024-02-14T09:55:17;2.85;;;1.90;;
47715;SDS011;33476;50.984;3.538;2024-02-14T09:57:42;2.70;;;1.67;;
47715;SDS011;33476;50.984;3.538;2024-02-14T10:00:09;4.15;;;1.95;;
47715;SDS011;33476;50.984;3.538;2024-02-14T10:02:35;2.95;;;1.48;;
47715;SDS011;33476;50.984;3.538;2024-02-14T10:05:01;3.97;;;1.80;;
47715;SDS011;33476;50.984;3.538;2024-02-14T10:07:26;4.10;;;1.88;;
47715;SDS011;33476;50.984;3.538;2024-02-14T10:09:52;3.90;;;2.05;;
47715;SDS011;33476;50.984;3.538;2024-02-14T10:12:18;2.25;;;1.52;;
47715;SDS011;33476;50.984;3.538;2024-02-14T10:14:44;4.43;;;1.80;;
47715;SDS011;33476;50.984;3.538;2024-02-14T10:17:16;3.55;;;1.40;;
47715;SDS011;33476;50.984;3.538;2024-02-14T10:19:43;3.80;;;1.50;;
47715;SDS011;33476;50.984;3.538;2024-02-14T10:22:08;2.88;;;1.17;;
47715;SDS011;33476;50.984;3.538;2024-02-14T10:24:33;2.33;;;1.58;;
47715;SDS011;33476;50.984;3.538;2024-02-14T10:26:59;2.67;;;1.15;;
47715;SDS011;33476;50.984;3.538;2024-02-14T10:29:25;3.50;;;1.55;;
47715;SDS011;33476;50.984;3.538;2024-02-14T10:31:50;2.92;;;1.38;;
47715;SDS011;33476;50.984;3.538;2024-02-14T10:34:18;1.60;;;1.33;;
47715;SDS011;33476;50.984;3.538;2024-02-14T10:36:45;3.33;;;1.25;;
47715;SDS011;33476;50.984;3.538;2024-02-14T10:39:12;2.85;;;1.10;;
47715;SDS011;33476;50.984;3.538;2024-02-14T10:41:40;1.63;;;0.95;;
47715;SDS011;33476;50.984;3.538;2024-02-14T10:44:06;1.33;;;1.10;;
47715;SDS011;33476;50.984;3.538;2024-02-14T10:46:32;2.97;;;1.70;;
47715;SDS011;33476;50.984;3.538;2024-02-14T10:49:02;1.95;;;1.33;;
47715;SDS011;33476;50.984;3.538;2024-02-14T10:51:30;2.20;;;1.38;;
47715;SDS011;33476;50.984;3.538;2024-02-14T10:53:57;4.28;;;1.23;;
47715;SDS011;33476;50.984;3.538;2024-02-14T10:56:28;4.82;;;1.50;;
47715;SDS011;33476;50.984;3.538;2024-02-14T10:58:55;4.13;;;1.48;;
47715;SDS011;33476;50.984;3.538;2024-02-14T11:01:28;2.65;;;1.70;;
47715;SDS011;33476;50.984;3.538;2024-02-14T11:03:59;2.85;;;1.60;;
47715;SDS011;33476;50.984;3.538;2024-02-14T11:06:25;4.15;;;1.90;;
47715;SDS011;33476;50.984;3.538;2024-02-14T11:11:22;2.80;;;1.58;;
47715;SDS011;33476;50.984;3.538;2024-02-14T11:13:52;3.38;;;1.75;;
47715;SDS011;33476;50.984;3.538;2024-02-14T11:16:22;3.80;;;1.50;;
47715;SDS011;33476;50.984;3.538;2024-02-14T11:18:48;2.53;;;1.52;;
47715;SDS011;33476;50.984;3.538;2024-02-14T11:21:16;3.92;;;1.55;;
47715;SDS011;33476;50.984;3.538;2024-02-14T11:23:54;3.55;;;1.55;;
47715;SDS011;33476;50.984;3.538;2024-02-14T11:26:20;5.03;;;1.58;;
47715;SDS011;33476;50.984;3.538;2024-02-14T11:28:48;3.40;;;1.55;;
47715;SDS011;33476;50.984;3.538;2024-02-14T11:31:16;7.75;;;2.03;;
47715;SDS011;33476;50.984;3.538;2024-02-14T11:33:42;4.38;;;1.42;;
47715;SDS011;33476;50.984;3.538;2024-02-14T11:36:10;3.47;;;1.30;;
47715;SDS011;33476;50.984;3.538;2024-02-14T11:38:36;3.67;;;1.52;;
47715;SDS011;33476;50.984;3.538;2024-02-14T11:41:06;4.38;;;1.90;;
47715;SDS011;33476;50.984;3.538;2024-02-14T11:43:32;3.20;;;1.27;;
47715;SDS011;33476;50.984;3.538;2024-02-14T11:45:57;3.65;;;1.15;;
47715;SDS011;33476;50.984;3.538;2024-02-14T11:48:23;4.72;;;1.65;;
47715;SDS011;33476;50.984;3.538;2024-02-14T11:50:49;4.68;;;1.52;;
47715;SDS011;33476;50.984;3.538;2024-02-14T11:53:16;5.28;;;1.38;;
47715;SDS011;33476;50.984;3.538;2024-02-14T11:55:44;9.20;;;1.55;;
47715;SDS011;33476;50.984;3.538;2024-02-14T11:58:12;3.53;;;1.20;;
47715;SDS011;33476;50.984;3.538;2024-02-14T12:00:42;4.65;;;1.67;;
47715;SDS011;33476;50.984;3.538;2024-02-14T12:03:12;3.90;;;1.42;;
47715;SDS011;33476;50.984;3.538;2024-02-14T12:05:41;5.15;;;1.63;;
47715;SDS011;33476;50.984;3.538;2024-02-14T12:08:09;6.13;;;1.65;;
47715;SDS011;33476;50.984;3.538;2024-02-14T12:10:35;4.13;;;1.50;;
47715;SDS011;33476;50.984;3.538;2024-02-14T12:13:09;4.25;;;1.65;;
47715;SDS011;33476;50.984;3.538;2024-02-14T12:15:40;4.03;;;1.40;;
47715;SDS011;33476;50.984;3.538;2024-02-14T12:18:06;3.13;;;1.00;;
47715;SDS011;33476;50.984;3.538;2024-02-14T12:20:33;4.47;;;1.10;;
47715;SDS011;33476;50.984;3.538;2024-02-14T12:22:59;3.25;;;1.30;;
47715;SDS011;33476;50.984;3.538;2024-02-14T12:25:25;5.80;;;1.42;;
47715;SDS011;33476;50.984;3.538;2024-02-14T12:27:51;2.28;;;1.02;;
47715;SDS011;33476;50.984;3.538;2024-02-14T12:30:18;3.50;;;1.17;;
47715;SDS011;33476;50.984;3.538;2024-02-14T12:32:46;4.30;;;1.05;;
47715;SDS011;33476;50.984;3.538;2024-02-14T12:35:23;3.17;;;0.95;;
47715;SDS011;33476;50.984;3.538;2024-02-14T12:37:48;4.93;;;1.02;;
47715;SDS011;33476;50.984;3.538;2024-02-14T12:40:14;5.72;;;1.30;;
47715;SDS011;33476;50.984;3.538;2024-02-14T12:42:39;5.80;;;1.40;;
47715;SDS011;33476;50.984;3.538;2024-02-14T12:45:04;4.70;;;0.90;;
47715;SDS011;33476;50.984;3.538;2024-02-14T12:47:30;3.13;;;1.17;;
47715;SDS011;33476;50.984;3.538;2024-02-14T12:49:59;2.28;;;0.90;;
47715;SDS011;33476;50.984;3.538;2024-02-14T12:52:25;4.28;;;1.50;;
47715;SDS011;33476;50.984;3.538;2024-02-14T12:54:51;5.65;;;1.52;;
47715;SDS011;33476;50.984;3.538;2024-02-14T12:57:16;5.45;;;1.65;;
47715;SDS011;33476;50.984;3.538;2024-02-14T12:59:42;2.58;;;1.30;;
47715;SDS011;33476;50.984;3.538;2024-02-14T13:02:07;3.90;;;1.50;;
47715;SDS011;33476;50.984;3.538;2024-02-14T13:04:32;3.15;;;1.13;;
47715;SDS011;33476;50.984;3.538;2024-02-14T13:06:58;2.22;;;1.30;;
47715;SDS011;33476;50.984;3.538;2024-02-14T13:09:24;4.43;;;1.85;;
47715;SDS011;33476;50.984;3.538;2024-02-14T13:11:49;4.25;;;1.08;;
47715;SDS011;33476;50.984;3.538;2024-02-14T13:14:14;2.85;;;1.20;;
47715;SDS011;33476;50.984;3.538;2024-02-14T13:16:40;4.10;;;1.30;;
47715;SDS011;33476;50.984;3.538;2024-02-14T13:19:05;1.48;;;1.17;;
47715;SDS011;33476;50.984;3.538;2024-02-14T13:21:30;3.92;;;1.13;;
47715;SDS011;33476;50.984;3.538;2024-02-14T13:23:56;1.95;;;0.95;;
47715;SDS011;33476;50.984;3.538;2024-02-14T13:26:22;4.00;;;1.17;;
47715;SDS011;33476;50.984;3.538;2024-02-14T13:28:48;7.13;;;1.65;;
47715;SDS011;33476;50.984;3.538;2024-02-14T13:31:15;4.78;;;1.13;;
47715;SDS011;33476;50.984;3.538;2024-02-14T13:33:40;3.80;;;1.40;;
47715;SDS011;33476;50.984;3.538;2024-02-14T13:36:06;4.95;;;1.17;;
47715;SDS011;33476;50.984;3.538;2024-02-14T13:38:31;5.82;;;1.38;;
47715;SDS011;33476;50.984;3.538;2024-02-14T13:40:57;4.88;;;1.08;;
47715;SDS011;33476;50.984;3.538;2024-02-14T13:43:23;6.25;;;1.27;;
47715;SDS011;33476;50.984;3.538;2024-02-14T13:45:48;1.40;;;1.02;;
47715;SDS011;33476;50.984;3.538;2024-02-14T13:48:15;3.95;;;1.40;;
47715;SDS011;33476;50.984;3.538;2024-02-14T13:50:41;3.17;;;1.23;;
47715;SDS011;33476;50.984;3.538;2024-02-14T13:53:09;4.88;;;1.20;;
47715;SDS011;33476;50.984;3.538;2024-02-14T13:55:34;5.70;;;1.00;;
47715;SDS011;33476;50.984;3.538;2024-02-14T13:58:00;3.78;;;0.93;;
47715;SDS011;33476;50.984;3.538;2024-02-14T14:00:25;6.75;;;1.60;;
47715;SDS011;33476;50.984;3.538;2024-02-14T14:02:50;5.88;;;1.75;;
47715;SDS011;33476;50.984;3.538;2024-02-14T14:05:16;5.22;;;1.20;;
47715;SDS011;33476;50.984;3.538;2024-02-14T14:07:41;3.72;;;1.27;;
47715;SDS011;33476;50.984;3.538;2024-02-14T14:10:10;4.53;;;1.10;;
47715;SDS011;33476;50.984;3.538;2024-02-14T14:12:35;2.83;;;0.85;;
47715;SDS011;33476;50.984;3.538;2024-02-14T14:15:01;7.63;;;1.25;;
47715;SDS011;33476;50.984;3.538;2024-02-14T14:17:27;5.15;;;1.10;;
47715;SDS011;33476;50.984;3.538;2024-02-14T14:19:53;3.75;;;0.90;;
47715;SDS011;33476;50.984;3.538;2024-02-14T14:22:19;5.88;;;1.08;;
47715;SDS011;33476;50.984;3.538;2024-02-14T14:24:44;7.20;;;1.02;;
47715;SDS011;33476;50.984;3.538;2024-02-14T14:27:10;3.33;;;0.90;;
47715;SDS011;33476;50.984;3.538;2024-02-14T14:29:38;6.50;;;1.20;;
47715;SDS011;33476;50.984;3.538;2024-02-14T14:32:06;4.85;;;1.25;;
47715;SDS011;33476;50.984;3.538;2024-02-14T14:34:32;5.55;;;1.48;;
47715;SDS011;33476;50.984;3.538;2024-02-14T14:36:58;4.45;;;1.23;;
47715;SDS011;33476;50.984;3.538;2024-02-14T14:39:23;4.88;;;1.67;;
47715;SDS011;33476;50.984;3.538;2024-02-14T14:41:48;5.32;;;1.25;;
47715;SDS011;33476;50.984;3.538;2024-02-14T14:44:16;1.75;;;1.27;;